sensor_id;sensor_type;location;lat;lon;timestamp;P1;durP1;ratioP1;P2;durP2;ratioP2
16928;SDS011;8581;47.334;11.190;2022-07-22T00:01:55;16.87;;;14.33;;
16928;SDS011;8581;47.334;11.190;2022-07-22T00:04:26;16.60;;;15.00;;
16928;SDS011;8581;47.334;11.190;2022-07-22T00:06:58;17.20;;;15.27;;
16928;SDS011;8581;47.334;11.190;2022-07-22T00:09:29;16.13;;;14.50;;
16928;SDS011;8581;47.334;11.190;2022-07-22T00:12:01;17.37;;;15.57;;
16928;SDS011;8581;47.334;11.190;2022-07-22T00:14:33;18.10;;;16.30;;
16928;SDS011;8581;47.334;11.190;2022-07-22T00:17:04;19.37;;;16.03;;
16928;SDS011;8581;47.334;11.190;2022-07-22T00:19:36;17.53;;;15.37;;
16928;SDS011;8581;47.334;11.190;2022-07-22T00:22:07;17.27;;;15.63;;
16928;SDS011;8581;47.334;11.190;2022-07-22T00:24:39;17.30;;;15.17;;
16928;SDS011;8581;47.334;11.190;2022-07-22T00:27:11;17.27;;;15.33;;
16928;SDS011;8581;47.334;11.190;2022-07-22T00:29:42;16.80;;;15.13;;
16928;SDS011;8581;47.334;11.190;2022-07-22T00:32:14;17.83;;;15.50;;
16928;SDS011;8581;47.334;11.190;2022-07-22T00:34:45;17.17;;;15.57;;
16928;SDS011;8581;47.334;11.190;2022-07-22T00:37:17;16.90;;;15.20;;
16928;SDS011;8581;47.334;11.190;2022-07-22T00:39:49;17.17;;;15.33;;
16928;SDS011;8581;47.334;11.190;2022-07-22T00:42:20;15.67;;;14.03;;
16928;SDS011;8581;47.334;11.190;2022-07-22T00:44:52;16.53;;;14.80;;
16928;SDS011;8581;47.334;11.190;2022-07-22T00:47:23;15.60;;;14.23;;
16928;SDS011;8581;47.334;11.190;2022-07-22T00:49:55;16.63;;;14.93;;
16928;SDS011;8581;47.334;11.190;2022-07-22T00:52:27;16.40;;;14.50;;
16928;SDS011;8581;47.334;11.190;2022-07-22T00:54:58;15.83;;;14.33;;
16928;SDS011;8581;47.334;11.190;2022-07-22T00:57:30;16.03;;;14.53;;
16928;SDS011;8581;47.334;11.190;2022-07-22T01:00:03;17.57;;;14.50;;
16928;SDS011;8581;47.334;11.190;2022-07-22T01:02:33;16.20;;;14.70;;
16928;SDS011;8581;47.334;11.190;2022-07-22T01:05:05;17.47;;;14.93;;
16928;SDS011;8581;47.334;11.190;2022-07-22T01:07:37;16.73;;;15.07;;
16928;SDS011;8581;47.334;11.190;2022-07-22T01:10:09;17.77;;;15.97;;
16928;SDS011;8581;47.334;11.190;2022-07-22T01:12:40;18.20;;;16.53;;
16928;SDS011;8581;47.334;11.190;2022-07-22T01:15:12;18.07;;;16.27;;
16928;SDS011;8581;47.334;11.190;2022-07-22T01:17:43;18.00;;;16.20;;
16928;SDS011;8581;47.334;11.190;2022-07-22T01:20:15;16.77;;;15.20;;
16928;SDS011;8581;47.334;11.190;2022-07-22T01:22:46;17.43;;;15.73;;
16928;SDS011;8581;47.334;11.190;2022-07-22T01:25:18;17.00;;;15.50;;
16928;SDS011;8581;47.334;11.190;2022-07-22T01:27:50;17.33;;;15.63;;
16928;SDS011;8581;47.334;11.190;2022-07-22T01:30:21;18.20;;;16.17;;
16928;SDS011;8581;47.334;11.190;2022-07-22T01:32:53;18.67;;;15.87;;
16928;SDS011;8581;47.334;11.190;2022-07-22T01:35:24;17.53;;;15.83;;
16928;SDS011;8581;47.334;11.190;2022-07-22T01:37:56;18.07;;;16.17;;
16928;SDS011;8581;47.334;11.190;2022-07-22T01:40:28;18.60;;;16.80;;
16928;SDS011;8581;47.334;11.190;2022-07-22T01:43:00;19.40;;;17.30;;
16928;SDS011;8581;47.334;11.190;2022-07-22T01:45:31;18.33;;;16.63;;
16928;SDS011;8581;47.334;11.190;2022-07-22T01:48:03;18.20;;;16.27;;
16928;SDS011;8581;47.334;11.190;2022-07-22T01:50:35;18.97;;;17.07;;
16928;SDS011;8581;47.334;11.190;2022-07-22T01:53:07;19.90;;;17.77;;
16928;SDS011;8581;47.334;11.190;2022-07-22T01:55:39;19.50;;;17.50;;
16928;SDS011;8581;47.334;11.190;2022-07-22T01:58:10;20.53;;;17.50;;
16928;SDS011;8581;47.334;11.190;2022-07-22T02:00:42;19.47;;;17.47;;
16928;SDS011;8581;47.334;11.190;2022-07-22T02:03:13;19.77;;;17.83;;
16928;SDS011;8581;47.334;11.190;2022-07-22T02:05:45;18.83;;;16.80;;
16928;SDS011;8581;47.334;11.190;2022-07-22T02:08:17;19.57;;;17.60;;
16928;SDS011;8581;47.334;11.190;2022-07-22T02:10:48;19.47;;;17.57;;
16928;SDS011;8581;47.334;11.190;2022-07-22T02:13:20;19.87;;;17.80;;
16928;SDS011;8581;47.334;11.190;2022-07-22T02:15:52;19.77;;;17.70;;
16928;SDS011;8581;47.334;11.190;2022-07-22T02:18:23;20.07;;;18.10;;
16928;SDS011;8581;47.334;11.190;2022-07-22T02:20:55;19.50;;;17.50;;
16928;SDS011;8581;47.334;11.190;2022-07-22T02:23:26;19.83;;;17.77;;
16928;SDS011;8581;47.334;11.190;2022-07-22T02:25:58;19.97;;;17.87;;
16928;SDS011;8581;47.334;11.190;2022-07-22T02:28:30;21.60;;;19.30;;
16928;SDS011;8581;47.334;11.190;2022-07-22T02:31:01;20.17;;;18.07;;
16928;SDS011;8581;47.334;11.190;2022-07-22T02:33:33;18.87;;;17.07;;
16928;SDS011;8581;47.334;11.190;2022-07-22T02:36:04;19.73;;;17.87;;
16928;SDS011;8581;47.334;11.190;2022-07-22T02:38:36;19.17;;;17.43;;
16928;SDS011;8581;47.334;11.190;2022-07-22T02:41:08;20.60;;;18.50;;
16928;SDS011;8581;47.334;11.190;2022-07-22T02:43:40;20.43;;;18.37;;
16928;SDS011;8581;47.334;11.190;2022-07-22T02:46:12;20.97;;;18.87;;
16928;SDS011;8581;47.334;11.190;2022-07-22T02:48:43;20.27;;;18.23;;
16928;SDS011;8581;47.334;11.190;2022-07-22T02:51:14;21.30;;;19.07;;
16928;SDS011;8581;47.334;11.190;2022-07-22T02:53:47;19.20;;;17.27;;
16928;SDS011;8581;47.334;11.190;2022-07-22T02:56:18;21.00;;;18.93;;
16928;SDS011;8581;47.334;11.190;2022-07-22T02:58:49;22.43;;;19.80;;
16928;SDS011;8581;47.334;11.190;2022-07-22T03:01:21;21.70;;;19.50;;
16928;SDS011;8581;47.334;11.190;2022-07-22T03:03:53;22.90;;;19.67;;
16928;SDS011;8581;47.334;11.190;2022-07-22T03:06:24;21.30;;;19.30;;
16928;SDS011;8581;47.334;11.190;2022-07-22T03:08:56;21.30;;;19.10;;
16928;SDS011;8581;47.334;11.190;2022-07-22T03:11:27;21.20;;;19.17;;
16928;SDS011;8581;47.334;11.190;2022-07-22T03:13:59;21.73;;;19.63;;
16928;SDS011;8581;47.334;11.190;2022-07-22T03:16:31;21.57;;;19.33;;
16928;SDS011;8581;47.334;11.190;2022-07-22T03:19:02;22.53;;;20.13;;
16928;SDS011;8581;47.334;11.190;2022-07-22T03:21:34;22.73;;;20.43;;
16928;SDS011;8581;47.334;11.190;2022-07-22T03:24:05;21.00;;;19.00;;
16928;SDS011;8581;47.334;11.190;2022-07-22T03:26:37;21.67;;;19.20;;
16928;SDS011;8581;47.334;11.190;2022-07-22T03:29:09;21.23;;;18.90;;
16928;SDS011;8581;47.334;11.190;2022-07-22T03:31:40;22.00;;;19.87;;
16928;SDS011;8581;47.334;11.190;2022-07-22T03:34:12;20.80;;;18.77;;
16928;SDS011;8581;47.334;11.190;2022-07-22T03:36:43;21.70;;;19.40;;
16928;SDS011;8581;47.334;11.190;2022-07-22T03:39:15;20.97;;;18.87;;
16928;SDS011;8581;47.334;11.190;2022-07-22T03:41:47;20.40;;;18.50;;
16928;SDS011;8581;47.334;11.190;2022-07-22T03:44:18;20.77;;;18.67;;
16928;SDS011;8581;47.334;11.190;2022-07-22T03:46:51;23.03;;;17.90;;
16928;SDS011;8581;47.334;11.190;2022-07-22T03:49:22;19.53;;;17.57;;
16928;SDS011;8581;47.334;11.190;2022-07-22T03:51:54;20.03;;;18.10;;
16928;SDS011;8581;47.334;11.190;2022-07-22T03:54:26;20.33;;;18.27;;
16928;SDS011;8581;47.334;11.190;2022-07-22T03:56:57;20.33;;;18.07;;
16928;SDS011;8581;47.334;11.190;2022-07-22T03:59:29;21.90;;;19.73;;
16928;SDS011;8581;47.334;11.190;2022-07-22T04:02:01;21.23;;;19.23;;
16928;SDS011;8581;47.334;11.190;2022-07-22T04:04:32;21.23;;;19.23;;
16928;SDS011;8581;47.334;11.190;2022-07-22T04:07:04;22.27;;;20.00;;
16928;SDS011;8581;47.334;11.190;2022-07-22T04:09:35;21.40;;;19.23;;
16928;SDS011;8581;47.334;11.190;2022-07-22T04:12:07;22.00;;;19.90;;
16928;SDS011;8581;47.334;11.190;2022-07-22T04:14:39;22.73;;;20.33;;
16928;SDS011;8581;47.334;11.190;2022-07-22T04:17:10;22.87;;;19.93;;
16928;SDS011;8581;47.334;11.190;2022-07-22T04:19:42;21.73;;;19.37;;
16928;SDS011;8581;47.334;11.190;2022-07-22T04:22:13;21.23;;;19.00;;
16928;SDS011;8581;47.334;11.190;2022-07-22T04:24:45;21.87;;;19.77;;
16928;SDS011;8581;47.334;11.190;2022-07-22T04:27:17;19.90;;;18.00;;
16928;SDS011;8581;47.334;11.190;2022-07-22T04:29:48;21.70;;;19.27;;
16928;SDS011;8581;47.334;11.190;2022-07-22T04:32:20;20.97;;;18.90;;
16928;SDS011;8581;47.334;11.190;2022-07-22T04:34:51;20.77;;;18.47;;
16928;SDS011;8581;47.334;11.190;2022-07-22T04:37:23;20.80;;;18.80;;
16928;SDS011;8581;47.334;11.190;2022-07-22T04:39:55;20.10;;;18.20;;
16928;SDS011;8581;47.334;11.190;2022-07-22T04:42:26;20.47;;;18.40;;
16928;SDS011;8581;47.334;11.190;2022-07-22T04:44:58;20.93;;;18.83;;
16928;SDS011;8581;47.334;11.190;2022-07-22T04:47:29;21.77;;;19.53;;
16928;SDS011;8581;47.334;11.190;2022-07-22T04:50:01;21.23;;;19.03;;
16928;SDS011;8581;47.334;11.190;2022-07-22T04:52:33;21.73;;;19.63;;
16928;SDS011;8581;47.334;11.190;2022-07-22T04:55:05;20.33;;;18.43;;
16928;SDS011;8581;47.334;11.190;2022-07-22T04:57:37;20.53;;;18.53;;
16928;SDS011;8581;47.334;11.190;2022-07-22T05:00:09;20.83;;;18.73;;
16928;SDS011;8581;47.334;11.190;2022-07-22T05:02:41;18.50;;;16.87;;
16928;SDS011;8581;47.334;11.190;2022-07-22T05:05:12;20.40;;;18.40;;
16928;SDS011;8581;47.334;11.190;2022-07-22T05:07:44;19.90;;;18.00;;
16928;SDS011;8581;47.334;11.190;2022-07-22T05:10:15;20.47;;;18.37;;
16928;SDS011;8581;47.334;11.190;2022-07-22T05:12:47;22.23;;;20.10;;
16928;SDS011;8581;47.334;11.190;2022-07-22T05:15:19;21.23;;;19.20;;
16928;SDS011;8581;47.334;11.190;2022-07-22T05:17:50;23.57;;;21.27;;
16928;SDS011;8581;47.334;11.190;2022-07-22T05:20:22;20.80;;;18.80;;
16928;SDS011;8581;47.334;11.190;2022-07-22T05:22:53;19.43;;;17.53;;
16928;SDS011;8581;47.334;11.190;2022-07-22T05:25:25;20.27;;;18.23;;
16928;SDS011;8581;47.334;11.190;2022-07-22T05:27:57;20.23;;;18.27;;
16928;SDS011;8581;47.334;11.190;2022-07-22T05:30:28;20.93;;;18.90;;
16928;SDS011;8581;47.334;11.190;2022-07-22T05:33:00;20.53;;;17.80;;
16928;SDS011;8581;47.334;11.190;2022-07-22T05:35:31;20.37;;;18.27;;
16928;SDS011;8581;47.334;11.190;2022-07-22T05:38:03;18.80;;;16.83;;
16928;SDS011;8581;47.334;11.190;2022-07-22T05:40:40;19.10;;;17.30;;
16928;SDS011;8581;47.334;11.190;2022-07-22T05:43:11;19.30;;;16.40;;
16928;SDS011;8581;47.334;11.190;2022-07-22T05:45:43;18.10;;;16.17;;
16928;SDS011;8581;47.334;11.190;2022-07-22T05:48:14;16.10;;;14.57;;
16928;SDS011;8581;47.334;11.190;2022-07-22T05:50:46;21.27;;;14.17;;
16928;SDS011;8581;47.334;11.190;2022-07-22T05:53:18;16.03;;;14.40;;
16928;SDS011;8581;47.334;11.190;2022-07-22T05:55:49;17.60;;;14.80;;
16928;SDS011;8581;47.334;11.190;2022-07-22T05:58:21;16.70;;;14.87;;
16928;SDS011;8581;47.334;11.190;2022-07-22T06:00:52;17.47;;;15.10;;
16928;SDS011;8581;47.334;11.190;2022-07-22T06:03:24;21.27;;;14.90;;
16928;SDS011;8581;47.334;11.190;2022-07-22T06:05:56;20.67;;;14.83;;
16928;SDS011;8581;47.334;11.190;2022-07-22T06:08:27;16.80;;;14.33;;
16928;SDS011;8581;47.334;11.190;2022-07-22T06:10:59;16.20;;;14.47;;
16928;SDS011;8581;47.334;11.190;2022-07-22T06:13:30;16.67;;;13.63;;
16928;SDS011;8581;47.334;11.190;2022-07-22T06:16:02;17.57;;;14.67;;
16928;SDS011;8581;47.334;11.190;2022-07-22T06:18:34;16.33;;;14.70;;
16928;SDS011;8581;47.334;11.190;2022-07-22T06:21:06;15.00;;;13.50;;
16928;SDS011;8581;47.334;11.190;2022-07-22T06:23:37;14.47;;;12.93;;
16928;SDS011;8581;47.334;11.190;2022-07-22T06:26:09;13.83;;;12.53;;
16928;SDS011;8581;47.334;11.190;2022-07-22T06:28:41;14.23;;;12.83;;
16928;SDS011;8581;47.334;11.190;2022-07-22T06:31:12;17.40;;;13.88;;
16928;SDS011;8581;47.334;11.190;2022-07-22T06:33:44;17.37;;;14.93;;
16928;SDS011;8581;47.334;11.190;2022-07-22T06:36:15;15.07;;;13.50;;
16928;SDS011;8581;47.334;11.190;2022-07-22T06:38:47;15.13;;;13.67;;
16928;SDS011;8581;47.334;11.190;2022-07-22T06:41:19;14.40;;;12.97;;
16928;SDS011;8581;47.334;11.190;2022-07-22T06:43:51;14.98;;;13.20;;
16928;SDS011;8581;47.334;11.190;2022-07-22T06:46:22;14.15;;;12.70;;
16928;SDS011;8581;47.334;11.190;2022-07-22T06:48:54;14.73;;;13.13;;
16928;SDS011;8581;47.334;11.190;2022-07-22T06:51:26;14.55;;;13.08;;
16928;SDS011;8581;47.334;11.190;2022-07-22T06:53:58;14.90;;;12.55;;
16928;SDS011;8581;47.334;11.190;2022-07-22T06:56:30;14.93;;;13.47;;
16928;SDS011;8581;47.334;11.190;2022-07-22T06:59:01;14.45;;;12.95;;
16928;SDS011;8581;47.334;11.190;2022-07-22T07:01:33;14.53;;;13.00;;
16928;SDS011;8581;47.334;11.190;2022-07-22T07:04:04;13.67;;;12.27;;
16928;SDS011;8581;47.334;11.190;2022-07-22T07:06:36;15.03;;;13.47;;
16928;SDS011;8581;47.334;11.190;2022-07-22T07:09:08;13.80;;;12.50;;
16928;SDS011;8581;47.334;11.190;2022-07-22T07:11:39;14.28;;;12.80;;
16928;SDS011;8581;47.334;11.190;2022-07-22T07:14:12;14.93;;;13.50;;
16928;SDS011;8581;47.334;11.190;2022-07-22T07:16:46;15.23;;;13.27;;
16928;SDS011;8581;47.334;11.190;2022-07-22T07:19:18;13.30;;;12.13;;
16928;SDS011;8581;47.334;11.190;2022-07-22T07:21:49;13.00;;;11.73;;
16928;SDS011;8581;47.334;11.190;2022-07-22T07:24:21;13.95;;;12.68;;
16928;SDS011;8581;47.334;11.190;2022-07-22T07:26:52;14.27;;;12.97;;
16928;SDS011;8581;47.334;11.190;2022-07-22T07:29:24;13.38;;;12.07;;
16928;SDS011;8581;47.334;11.190;2022-07-22T07:31:56;13.40;;;12.05;;
16928;SDS011;8581;47.334;11.190;2022-07-22T07:34:27;13.63;;;12.10;;
16928;SDS011;8581;47.334;11.190;2022-07-22T07:36:59;13.37;;;11.97;;
16928;SDS011;8581;47.334;11.190;2022-07-22T07:39:31;13.08;;;11.75;;
16928;SDS011;8581;47.334;11.190;2022-07-22T07:42:03;13.32;;;12.00;;
16928;SDS011;8581;47.334;11.190;2022-07-22T07:44:34;13.55;;;12.15;;
16928;SDS011;8581;47.334;11.190;2022-07-22T07:47:06;12.60;;;11.30;;
16928;SDS011;8581;47.334;11.190;2022-07-22T07:49:38;13.35;;;11.10;;
16928;SDS011;8581;47.334;11.190;2022-07-22T07:52:10;14.23;;;11.60;;
16928;SDS011;8581;47.334;11.190;2022-07-22T07:54:41;11.97;;;10.95;;
16928;SDS011;8581;47.334;11.190;2022-07-22T07:57:13;12.35;;;11.15;;
16928;SDS011;8581;47.334;11.190;2022-07-22T07:59:44;12.70;;;11.40;;
16928;SDS011;8581;47.334;11.190;2022-07-22T08:02:16;13.83;;;11.03;;
16928;SDS011;8581;47.334;11.190;2022-07-22T08:04:48;11.60;;;10.58;;
16928;SDS011;8581;47.334;11.190;2022-07-22T08:07:20;12.55;;;11.43;;
16928;SDS011;8581;47.334;11.190;2022-07-22T08:09:52;13.03;;;11.40;;
16928;SDS011;8581;47.334;11.190;2022-07-22T08:12:23;12.70;;;11.40;;
16928;SDS011;8581;47.334;11.190;2022-07-22T08:14:55;12.55;;;11.33;;
16928;SDS011;8581;47.334;11.190;2022-07-22T08:17:26;11.63;;;10.38;;
16928;SDS011;8581;47.334;11.190;2022-07-22T08:19:58;11.57;;;10.55;;
16928;SDS011;8581;47.334;11.190;2022-07-22T08:22:30;10.93;;;10.03;;
16928;SDS011;8581;47.334;11.190;2022-07-22T08:25:01;11.70;;;10.60;;
16928;SDS011;8581;47.334;11.190;2022-07-22T08:27:33;11.70;;;10.58;;
16928;SDS011;8581;47.334;11.190;2022-07-22T08:30:05;12.55;;;11.45;;
16928;SDS011;8581;47.334;11.190;2022-07-22T08:32:37;13.15;;;11.18;;
16928;SDS011;8581;47.334;11.190;2022-07-22T08:35:09;11.38;;;10.20;;
16928;SDS011;8581;47.334;11.190;2022-07-22T08:37:40;12.98;;;10.63;;
16928;SDS011;8581;47.334;11.190;2022-07-22T08:40:12;11.12;;;10.03;;
16928;SDS011;8581;47.334;11.190;2022-07-22T08:42:44;10.88;;;9.88;;
16928;SDS011;8581;47.334;11.190;2022-07-22T08:45:15;10.32;;;9.43;;
16928;SDS011;8581;47.334;11.190;2022-07-22T08:47:47;10.63;;;9.68;;
16928;SDS011;8581;47.334;11.190;2022-07-22T08:50:18;10.95;;;9.95;;
16928;SDS011;8581;47.334;11.190;2022-07-22T08:52:50;10.28;;;8.95;;
16928;SDS011;8581;47.334;11.190;2022-07-22T08:55:21;10.68;;;9.60;;
16928;SDS011;8581;47.334;11.190;2022-07-22T08:57:53;23.70;;;9.63;;
16928;SDS011;8581;47.334;11.190;2022-07-22T09:00:25;10.38;;;9.48;;
16928;SDS011;8581;47.334;11.190;2022-07-22T09:02:56;10.93;;;9.93;;
16928;SDS011;8581;47.334;11.190;2022-07-22T09:05:42;10.23;;;9.23;;
16928;SDS011;8581;47.334;11.190;2022-07-22T09:08:21;10.65;;;9.55;;
16928;SDS011;8581;47.334;11.190;2022-07-22T09:10:52;10.13;;;9.28;;
16928;SDS011;8581;47.334;11.190;2022-07-22T09:13:24;10.90;;;9.80;;
16928;SDS011;8581;47.334;11.190;2022-07-22T09:15:56;11.18;;;10.00;;
16928;SDS011;8581;47.334;11.190;2022-07-22T09:18:27;11.33;;;9.70;;
16928;SDS011;8581;47.334;11.190;2022-07-22T09:20:59;11.03;;;10.13;;
16928;SDS011;8581;47.334;11.190;2022-07-22T09:23:38;10.88;;;9.95;;
16928;SDS011;8581;47.334;11.190;2022-07-22T09:26:03;11.05;;;9.83;;
16928;SDS011;8581;47.334;11.190;2022-07-22T09:28:35;10.63;;;9.73;;
16928;SDS011;8581;47.334;11.190;2022-07-22T09:31:06;11.15;;;10.05;;
16928;SDS011;8581;47.334;11.190;2022-07-22T09:33:38;10.80;;;9.90;;
16928;SDS011;8581;47.334;11.190;2022-07-22T09:36:10;10.08;;;9.15;;
16928;SDS011;8581;47.334;11.190;2022-07-22T09:38:41;10.68;;;9.55;;
16928;SDS011;8581;47.334;11.190;2022-07-22T09:41:13;10.75;;;9.60;;
16928;SDS011;8581;47.334;11.190;2022-07-22T09:43:44;11.90;;;10.85;;
16928;SDS011;8581;47.334;11.190;2022-07-22T09:46:16;10.43;;;9.38;;
16928;SDS011;8581;47.334;11.190;2022-07-22T09:48:48;10.18;;;9.28;;
16928;SDS011;8581;47.334;11.190;2022-07-22T09:51:19;10.00;;;9.15;;
16928;SDS011;8581;47.334;11.190;2022-07-22T09:53:51;9.93;;;9.00;;
16928;SDS011;8581;47.334;11.190;2022-07-22T09:56:22;9.33;;;8.53;;
16928;SDS011;8581;47.334;11.190;2022-07-22T09:58:54;9.28;;;8.38;;
16928;SDS011;8581;47.334;11.190;2022-07-22T10:01:26;9.23;;;8.43;;
16928;SDS011;8581;47.334;11.190;2022-07-22T10:03:57;11.03;;;8.30;;
16928;SDS011;8581;47.334;11.190;2022-07-22T10:06:29;9.95;;;9.00;;
16928;SDS011;8581;47.334;11.190;2022-07-22T10:09:00;9.08;;;8.25;;
16928;SDS011;8581;47.334;11.190;2022-07-22T10:11:32;8.20;;;7.47;;
16928;SDS011;8581;47.334;11.190;2022-07-22T10:14:04;8.50;;;7.70;;
16928;SDS011;8581;47.334;11.190;2022-07-22T10:16:36;8.95;;;8.05;;
16928;SDS011;8581;47.334;11.190;2022-07-22T10:19:07;8.40;;;7.80;;
16928;SDS011;8581;47.334;11.190;2022-07-22T10:21:38;8.33;;;7.53;;
16928;SDS011;8581;47.334;11.190;2022-07-22T10:24:13;7.50;;;6.90;;
16928;SDS011;8581;47.334;11.190;2022-07-22T10:26:47;8.05;;;7.45;;
16928;SDS011;8581;47.334;11.190;2022-07-22T10:29:24;7.87;;;7.20;;
16928;SDS011;8581;47.334;11.190;2022-07-22T10:34:39;7.60;;;6.90;;
16928;SDS011;8581;47.334;11.190;2022-07-22T10:45:37;6.92;;;6.33;;
16928;SDS011;8581;47.334;11.190;2022-07-22T10:48:08;7.47;;;6.80;;
16928;SDS011;8581;47.334;11.190;2022-07-22T10:50:40;7.47;;;6.05;;
16928;SDS011;8581;47.334;11.190;2022-07-22T10:53:13;7.70;;;6.25;;
16928;SDS011;8581;47.334;11.190;2022-07-22T10:58:40;7.42;;;6.70;;
16928;SDS011;8581;47.334;11.190;2022-07-22T11:01:13;7.42;;;6.50;;
16928;SDS011;8581;47.334;11.190;2022-07-22T11:03:44;7.28;;;6.65;;
16928;SDS011;8581;47.334;11.190;2022-07-22T11:06:16;7.67;;;6.95;;
16928;SDS011;8581;47.334;11.190;2022-07-22T11:08:50;6.83;;;6.33;;
16928;SDS011;8581;47.334;11.190;2022-07-22T11:11:30;8.18;;;7.47;;
16928;SDS011;8581;47.334;11.190;2022-07-22T11:13:51;7.55;;;7.03;;
16928;SDS011;8581;47.334;11.190;2022-07-22T11:16:23;8.00;;;7.40;;
16928;SDS011;8581;47.334;11.190;2022-07-22T11:18:58;7.87;;;7.00;;
16928;SDS011;8581;47.334;11.190;2022-07-22T11:21:29;8.23;;;7.05;;
16928;SDS011;8581;47.334;11.190;2022-07-22T11:24:01;7.62;;;6.92;;
16928;SDS011;8581;47.334;11.190;2022-07-22T11:26:36;6.87;;;6.37;;
16928;SDS011;8581;47.334;11.190;2022-07-22T11:29:07;7.20;;;6.50;;
16928;SDS011;8581;47.334;11.190;2022-07-22T11:31:38;7.70;;;7.10;;
16928;SDS011;8581;47.334;11.190;2022-07-22T11:34:10;7.05;;;6.50;;
16928;SDS011;8581;47.334;11.190;2022-07-22T11:36:43;6.75;;;5.92;;
16928;SDS011;8581;47.334;11.190;2022-07-22T11:39:17;7.58;;;6.85;;
16928;SDS011;8581;47.334;11.190;2022-07-22T11:41:45;7.95;;;7.15;;
16928;SDS011;8581;47.334;11.190;2022-07-22T11:44:18;6.97;;;6.47;;
16928;SDS011;8581;47.334;11.190;2022-07-22T11:46:49;6.95;;;6.35;;
16928;SDS011;8581;47.334;11.190;2022-07-22T11:49:21;7.22;;;6.55;;
16928;SDS011;8581;47.334;11.190;2022-07-22T11:51:54;6.42;;;5.92;;
16928;SDS011;8581;47.334;11.190;2022-07-22T11:54:26;6.45;;;5.85;;
16928;SDS011;8581;47.334;11.190;2022-07-22T11:56:57;7.40;;;6.47;;
16928;SDS011;8581;47.334;11.190;2022-07-22T11:59:29;6.70;;;6.15;;
16928;SDS011;8581;47.334;11.190;2022-07-22T12:02:01;6.53;;;6.03;;
16928;SDS011;8581;47.334;11.190;2022-07-22T12:04:32;8.50;;;5.58;;
16928;SDS011;8581;47.334;11.190;2022-07-22T12:07:03;5.90;;;5.50;;
16928;SDS011;8581;47.334;11.190;2022-07-22T12:09:36;6.03;;;5.53;;
16928;SDS011;8581;47.334;11.190;2022-07-22T12:12:07;6.03;;;5.60;;
16928;SDS011;8581;47.334;11.190;2022-07-22T12:14:44;7.83;;;7.05;;
16928;SDS011;8581;47.334;11.190;2022-07-22T12:17:10;6.90;;;6.15;;
16928;SDS011;8581;47.334;11.190;2022-07-22T12:19:42;67.25;;;9.03;;
16928;SDS011;8581;47.334;11.190;2022-07-22T12:22:19;5.83;;;5.33;;
16928;SDS011;8581;47.334;11.190;2022-07-22T12:27:28;6.30;;;5.80;;
16928;SDS011;8581;47.334;11.190;2022-07-22T12:30:00;6.12;;;5.20;;
16928;SDS011;8581;47.334;11.190;2022-07-22T12:32:31;5.97;;;5.47;;
16928;SDS011;8581;47.334;11.190;2022-07-22T12:35:03;5.80;;;5.30;;
16928;SDS011;8581;47.334;11.190;2022-07-22T12:37:43;6.22;;;5.75;;
16928;SDS011;8581;47.334;11.190;2022-07-22T12:40:17;5.80;;;5.30;;
16928;SDS011;8581;47.334;11.190;2022-07-22T12:45:31;5.58;;;5.08;;
16928;SDS011;8581;47.334;11.190;2022-07-22T12:48:06;6.03;;;5.62;;
16928;SDS011;8581;47.334;11.190;2022-07-22T12:50:38;5.80;;;5.40;;
16928;SDS011;8581;47.334;11.190;2022-07-22T12:53:13;5.20;;;4.78;;
16928;SDS011;8581;47.334;11.190;2022-07-22T12:55:46;5.55;;;5.12;;
16928;SDS011;8581;47.334;11.190;2022-07-22T12:58:17;5.33;;;4.83;;
16928;SDS011;8581;47.334;11.190;2022-07-22T13:00:49;5.75;;;5.35;;
16928;SDS011;8581;47.334;11.190;2022-07-22T13:03:20;7.30;;;5.40;;
16928;SDS011;8581;47.334;11.190;2022-07-22T13:05:55;5.55;;;5.15;;
16928;SDS011;8581;47.334;11.190;2022-07-22T13:08:25;5.87;;;5.37;;
16928;SDS011;8581;47.334;11.190;2022-07-22T13:10:56;5.75;;;5.30;;
16928;SDS011;8581;47.334;11.190;2022-07-22T13:13:28;5.58;;;5.17;;
16928;SDS011;8581;47.334;11.190;2022-07-22T13:16:01;5.87;;;5.37;;
16928;SDS011;8581;47.334;11.190;2022-07-22T13:18:32;6.05;;;5.55;;
16928;SDS011;8581;47.334;11.190;2022-07-22T13:21:04;6.12;;;5.70;;
16928;SDS011;8581;47.334;11.190;2022-07-22T13:23:36;7.60;;;5.85;;
16928;SDS011;8581;47.334;11.190;2022-07-22T13:26:07;5.70;;;5.30;;
16928;SDS011;8581;47.334;11.190;2022-07-22T13:28:39;6.30;;;5.80;;
16928;SDS011;8581;47.334;11.190;2022-07-22T13:31:10;6.22;;;5.00;;
16928;SDS011;8581;47.334;11.190;2022-07-22T13:33:42;12.63;;;5.83;;
16928;SDS011;8581;47.334;11.190;2022-07-22T13:36:14;5.72;;;5.33;;
16928;SDS011;8581;47.334;11.190;2022-07-22T13:38:46;5.53;;;5.10;;
16928;SDS011;8581;47.334;11.190;2022-07-22T13:41:18;6.12;;;5.60;;
16928;SDS011;8581;47.334;11.190;2022-07-22T13:43:49;5.15;;;4.75;;
16928;SDS011;8581;47.334;11.190;2022-07-22T13:46:21;5.97;;;5.58;;
16928;SDS011;8581;47.334;11.190;2022-07-22T13:48:53;5.95;;;5.47;;
16928;SDS011;8581;47.334;11.190;2022-07-22T13:51:24;5.20;;;4.80;;
16928;SDS011;8581;47.334;11.190;2022-07-22T13:53:56;5.50;;;5.03;;
16928;SDS011;8581;47.334;11.190;2022-07-22T13:56:27;5.72;;;5.22;;
16928;SDS011;8581;47.334;11.190;2022-07-22T13:58:59;9.80;;;5.30;;
16928;SDS011;8581;47.334;11.190;2022-07-22T14:01:31;5.53;;;5.00;;
16928;SDS011;8581;47.334;11.190;2022-07-22T14:04:02;7.67;;;5.42;;
16928;SDS011;8581;47.334;11.190;2022-07-22T14:06:34;6.37;;;4.87;;
16928;SDS011;8581;47.334;11.190;2022-07-22T14:09:06;5.28;;;4.78;;
16928;SDS011;8581;47.334;11.190;2022-07-22T14:11:37;5.92;;;5.37;;
16928;SDS011;8581;47.334;11.190;2022-07-22T14:14:09;5.40;;;4.90;;
16928;SDS011;8581;47.334;11.190;2022-07-22T14:16:40;5.62;;;5.10;;
16928;SDS011;8581;47.334;11.190;2022-07-22T14:19:14;5.60;;;5.20;;
16928;SDS011;8581;47.334;11.190;2022-07-22T14:21:44;5.58;;;5.03;;
16928;SDS011;8581;47.334;11.190;2022-07-22T14:24:15;5.72;;;4.90;;
16928;SDS011;8581;47.334;11.190;2022-07-22T14:26:47;5.67;;;5.17;;
16928;SDS011;8581;47.334;11.190;2022-07-22T14:29:19;5.67;;;5.03;;
16928;SDS011;8581;47.334;11.190;2022-07-22T14:31:50;6.17;;;5.55;;
16928;SDS011;8581;47.334;11.190;2022-07-22T14:34:22;5.62;;;5.22;;
16928;SDS011;8581;47.334;11.190;2022-07-22T14:36:53;5.78;;;5.28;;
16928;SDS011;8581;47.334;11.190;2022-07-22T14:39:25;6.28;;;5.78;;
16928;SDS011;8581;47.334;11.190;2022-07-22T14:41:57;6.05;;;5.45;;
16928;SDS011;8581;47.334;11.190;2022-07-22T14:44:28;6.12;;;5.53;;
16928;SDS011;8581;47.334;11.190;2022-07-22T14:47:00;6.12;;;5.62;;
16928;SDS011;8581;47.334;11.190;2022-07-22T14:49:31;5.70;;;5.20;;
16928;SDS011;8581;47.334;11.190;2022-07-22T14:52:03;5.60;;;5.10;;
16928;SDS011;8581;47.334;11.190;2022-07-22T14:54:35;6.05;;;5.55;;
16928;SDS011;8581;47.334;11.190;2022-07-22T14:57:06;5.87;;;5.47;;
16928;SDS011;8581;47.334;11.190;2022-07-22T14:59:38;6.47;;;5.87;;
16928;SDS011;8581;47.334;11.190;2022-07-22T15:02:10;6.22;;;5.72;;
16928;SDS011;8581;47.334;11.190;2022-07-22T15:04:41;7.08;;;5.60;;
16928;SDS011;8581;47.334;11.190;2022-07-22T15:07:13;5.92;;;5.53;;
16928;SDS011;8581;47.334;11.190;2022-07-22T15:09:44;5.72;;;5.33;;
16928;SDS011;8581;47.334;11.190;2022-07-22T15:12:16;6.15;;;5.70;;
16928;SDS011;8581;47.334;11.190;2022-07-22T15:14:48;6.33;;;5.92;;
16928;SDS011;8581;47.334;11.190;2022-07-22T15:17:19;6.37;;;5.62;;